createdAt,value
2022-10-17T00:00:35.198Z,102446.69
2022-10-17T00:03:08.533Z,102447.81
2022-10-17T00:05:35.086Z,102443.50
2022-10-17T00:08:01.639Z,102450.75
2022-10-17T00:10:28.164Z,102453.47
2022-10-17T00:12:54.668Z,102453.47
2022-10-17T00:15:22.473Z,102442.75
2022-10-17T00:17:49.017Z,102448.91
2022-10-17T00:20:15.918Z,102451.38
2022-10-17T00:22:42.687Z,102449.53
2022-10-17T00:25:09.523Z,102456.66
2022-10-17T00:27:40.964Z,102445.84
2022-10-17T00:30:11.151Z,102449.53
2022-10-17T00:32:37.861Z,102449.53
2022-10-17T00:35:05.003Z,102451.25
2022-10-17T00:37:32.217Z,102448.44
2022-10-17T00:39:59.308Z,102449.28
2022-10-17T00:42:26.970Z,102451.03
2022-10-17T00:45:12.789Z,102445.84
2022-10-17T00:47:39.752Z,102446.84
2022-10-17T00:50:07.094Z,102452.84
2022-10-17T00:52:34.424Z,102445.63
2022-10-17T00:55:10.620Z,102445.34
2022-10-17T00:57:37.418Z,102455.97
2022-10-17T01:00:07.912Z,102454.88
2022-10-17T01:02:34.486Z,102454.03
2022-10-17T01:05:01.150Z,102451.31
2022-10-17T01:07:31.911Z,102454.25
2022-10-17T01:10:01.865Z,102450.75
2022-10-17T01:12:39.004Z,102453.59
2022-10-17T01:15:21.668Z,102445.63
2022-10-17T01:18:11.545Z,102454.69
2022-10-17T01:20:53.193Z,102452.09
2022-10-17T01:23:50.733Z,102454.06
2022-10-17T01:26:35.332Z,102457.16
2022-10-17T01:29:28.087Z,102452.63
2022-10-17T01:32:02.469Z,102453.47
2022-10-17T01:34:38.044Z,102449.91
2022-10-17T01:37:08.657Z,102442.66
2022-10-17T01:39:51.985Z,102438.09
2022-10-17T01:42:18.459Z,102448.06
2022-10-17T01:44:54.216Z,102441.66
2022-10-17T01:47:23.036Z,102444.34
2022-10-17T01:49:51.736Z,102449.75
2022-10-17T01:52:25.432Z,102442.50
2022-10-17T01:54:59.794Z,102441.78
2022-10-17T01:57:37.150Z,102442.66
2022-10-17T02:00:07.123Z,102437.97
2022-10-17T02:02:34.171Z,102435.00
2022-10-17T02:07:33.488Z,102434.03
2022-10-17T02:10:00.057Z,102439.56
2022-10-17T02:12:34.589Z,102436.00
2022-10-17T02:15:20.109Z,102441.28
2022-10-17T02:17:49.547Z,102442.16
2022-10-17T02:20:35.730Z,102441.16
2022-10-17T02:23:20.842Z,102440.19
2022-10-17T02:26:06.299Z,102440.19
2022-10-17T02:28:45.125Z,102443.88
2022-10-17T02:31:17.167Z,102437.72
2022-10-17T02:33:59.925Z,102437.22
2022-10-17T02:36:30.871Z,102446.47
2022-10-17T02:38:58.101Z,102441.16
2022-10-17T02:41:25.058Z,102441.28
2022-10-17T02:43:53.434Z,102441.16
2022-10-17T02:46:22.394Z,102443.75
2022-10-17T02:48:51.659Z,102443.75
2022-10-17T02:51:37.168Z,102444.72
2022-10-17T02:54:16.327Z,102442.88
2022-10-17T02:56:48.621Z,102449.16
2022-10-17T02:59:17.613Z,102447.44
2022-10-17T03:01:44.310Z,102443.97
2022-10-17T03:04:13.428Z,102452.00
2022-10-17T03:06:41.145Z,102439.69
2022-10-17T03:09:08.106Z,102448.00
2022-10-17T03:11:34.756Z,102449.00
2022-10-17T03:14:01.255Z,102456.13
2022-10-17T03:16:27.818Z,102449.75
2022-10-17T03:18:54.321Z,102459.84
2022-10-17T03:21:20.863Z,102453.69
2022-10-17T03:23:47.404Z,102455.38
2022-10-17T03:26:13.993Z,102454.31
2022-10-17T03:28:40.536Z,102458.72
2022-10-17T03:31:12.981Z,102459.59
2022-10-17T03:33:39.501Z,102458.72
2022-10-17T03:36:10.490Z,102460.69
2022-10-17T03:38:38.647Z,102462.53
2022-10-17T03:41:06.013Z,102464.25
2022-10-17T03:43:32.612Z,102459.84
2022-10-17T03:45:59.939Z,102467.94
2022-10-17T03:48:27.321Z,102468.91
2022-10-17T03:51:05.632Z,102469.81
2022-10-17T03:53:32.408Z,102480.00
2022-10-17T03:56:13.084Z,102481.09
2022-10-17T03:58:40.436Z,102488.31
2022-10-17T04:01:11.778Z,102487.38
2022-10-17T04:03:38.564Z,102484.78
2022-10-17T04:06:05.892Z,102486.72
2022-10-17T04:08:33.287Z,102495.84
2022-10-17T04:11:04.490Z,102498.44
2022-10-17T04:13:31.175Z,102491.03
2022-10-17T04:16:02.485Z,102499.03
2022-10-17T04:18:29.261Z,102497.34
2022-10-17T04:20:55.800Z,102502.75
2022-10-17T04:23:22.633Z,102507.25
2022-10-17T04:25:49.491Z,102505.56
2022-10-17T04:28:16.330Z,102507.41
2022-10-17T04:30:45.462Z,102510.13
2022-10-17T04:33:12.235Z,102518.34
2022-10-17T04:35:38.857Z,102515.75
2022-10-17T04:38:05.365Z,102515.88
2022-10-17T04:40:31.933Z,102516.94
2022-10-17T04:42:58.513Z,102511.69
2022-10-17T04:45:25.050Z,102523.34
2022-10-17T04:47:51.557Z,102528.75
2022-10-17T04:50:18.760Z,102526.91
2022-10-17T04:52:45.246Z,102529.63
2022-10-17T04:55:11.741Z,102534.19
2022-10-17T04:57:38.318Z,102532.56
2022-10-17T05:00:05.382Z,102530.72
2022-10-17T05:02:32.145Z,102534.19
2022-10-17T05:04:58.767Z,102533.94
2022-10-17T05:07:25.262Z,102538.28
2022-10-17T05:09:51.798Z,102529.16
2022-10-17T05:12:18.326Z,102530.91
2022-10-17T05:14:44.831Z,102534.56
2022-10-17T05:17:11.328Z,102535.41
2022-10-17T05:19:38.083Z,102530.16
2022-10-17T05:22:04.605Z,102530.16
2022-10-17T05:24:31.101Z,102528.41
2022-10-17T05:26:57.640Z,102535.03
2022-10-17T05:29:24.229Z,102529.88
2022-10-17T05:31:50.803Z,102534.28
2022-10-17T05:34:17.378Z,102536.25
2022-10-17T05:36:43.877Z,102537.09
2022-10-17T05:39:13.539Z,102541.66
2022-10-17T05:41:40.093Z,102538.94
2022-10-17T05:44:06.612Z,102535.28
2022-10-17T05:46:33.132Z,102546.84
2022-10-17T05:48:59.629Z,102543.88
2022-10-17T05:51:26.465Z,102540.97
2022-10-17T05:53:53.041Z,102539.13
2022-10-17T05:56:20.385Z,102542.44
2022-10-17T05:58:53.245Z,102549.47
2022-10-17T06:01:21.661Z,102550.09
2022-10-17T06:03:48.208Z,102553.53
2022-10-17T06:06:15.597Z,102550.50
2022-10-17T06:08:42.848Z,102549.41
2022-10-17T06:11:10.515Z,102550.13
2022-10-17T06:13:37.765Z,102555.31
2022-10-17T06:16:04.844Z,102559.50
2022-10-17T06:18:31.354Z,102553.13
2022-10-17T06:21:10.200Z,102561.97
2022-10-17T06:23:36.924Z,102567.16
2022-10-17T06:26:05.444Z,102567.06
2022-10-17T06:28:32.322Z,102579.75
2022-10-17T06:30:58.878Z,102578.75
2022-10-17T06:33:25.427Z,102584.91
2022-10-17T06:35:53.350Z,102587.41
2022-10-17T06:38:20.169Z,102591.34
2022-10-17T06:40:46.781Z,102585.66
2022-10-17T06:43:13.757Z,102597.03
2022-10-17T06:45:40.644Z,102604.56
2022-10-17T06:48:07.477Z,102598.03
2022-10-17T06:50:34.271Z,102602.22
2022-10-17T06:53:00.774Z,102600.00
2022-10-17T06:55:27.292Z,102607.75
2022-10-17T06:57:56.983Z,102611.97
2022-10-17T07:00:23.712Z,102602.75
2022-10-17T07:02:50.461Z,102609.63
2022-10-17T07:05:17.343Z,102608.16
2022-10-17T07:07:45.521Z,102613.97
2022-10-17T07:10:13.974Z,102612.34
2022-10-17T07:12:40.530Z,102618.03
2022-10-17T07:15:07.539Z,102618.19
2022-10-17T07:17:34.182Z,102616.59
2022-10-17T07:20:00.728Z,102621.41
2022-10-17T07:22:27.318Z,102620.63
2022-10-17T07:24:53.841Z,102625.28
2022-10-17T07:27:20.355Z,102616.53
2022-10-17T07:29:46.852Z,102625.88
2022-10-17T07:32:13.333Z,102623.38
2022-10-17T07:34:39.861Z,102619.19
2022-10-17T07:37:07.404Z,102623.94
2022-10-17T07:39:35.676Z,102628.00
2022-10-17T07:42:02.282Z,102637.22
2022-10-17T07:44:28.849Z,102642.06
2022-10-17T07:46:55.360Z,102644.97
2022-10-17T07:49:21.891Z,102641.47
2022-10-17T07:51:48.704Z,102648.97
2022-10-17T07:54:15.308Z,102645.34
2022-10-17T07:56:41.846Z,102646.28
2022-10-17T07:59:09.536Z,102652.75
2022-10-17T08:01:36.993Z,102650.97
2022-10-17T08:04:03.693Z,102655.34
2022-10-17T08:06:30.227Z,102650.69
2022-10-17T08:08:58.008Z,102645.19
2022-10-17T08:11:25.423Z,102646.09
2022-10-17T08:13:52.026Z,102655.00
2022-10-17T08:16:18.606Z,102652.75
2022-10-17T08:18:45.132Z,102653.22
2022-10-17T08:21:13.239Z,102651.88
2022-10-17T08:23:40.396Z,102660.31
2022-10-17T08:26:10.468Z,102652.03
2022-10-17T08:28:38.677Z,102663.75
2022-10-17T08:31:11.315Z,102667.22
2022-10-17T08:33:37.888Z,102668.50
2022-10-17T08:36:05.588Z,102668.63
2022-10-17T08:38:36.940Z,102676.56
2022-10-17T08:41:07.817Z,102675.38
2022-10-17T08:43:40.179Z,102674.25
2022-10-17T08:46:09.054Z,102676.38
2022-10-17T08:48:45.505Z,102687.72
2022-10-17T08:51:21.614Z,102688.28
2022-10-17T08:54:00.628Z,102691.00
2022-10-17T08:56:49.622Z,102685.56
2022-10-17T08:59:20.374Z,102692.59
2022-10-17T09:02:19.328Z,102693.59
2022-10-17T09:05:02.103Z,102694.63
2022-10-17T09:07:42.119Z,102691.88
2022-10-17T09:10:23.814Z,102685.56
2022-10-17T09:13:23.168Z,102683.84
2022-10-17T09:15:55.649Z,102691.88
2022-10-17T09:18:28.504Z,102693.16
2022-10-17T09:20:59.378Z,102692.44
2022-10-17T09:23:28.960Z,102698.91
2022-10-17T09:25:58.661Z,102697.03
2022-10-17T09:28:31.442Z,102708.78
2022-10-17T09:31:14.697Z,102698.06
2022-10-17T09:33:54.894Z,102703.34
2022-10-17T09:36:34.375Z,102706.78
2022-10-17T09:39:04.099Z,102706.22
2022-10-17T09:41:50.502Z,102701.34
2022-10-17T09:44:32.047Z,102700.50
2022-10-17T09:47:39.229Z,102699.34
2022-10-17T09:50:10.935Z,102712.22
2022-10-17T09:52:41.024Z,102709.50
2022-10-17T09:55:16.828Z,102707.09
2022-10-17T09:57:59.183Z,102713.66
2022-10-17T10:00:31.445Z,102706.50
2022-10-17T10:03:18.281Z,102708.38
2022-10-17T10:06:03.117Z,102697.19
2022-10-17T10:08:34.377Z,102695.63
2022-10-17T10:11:13.396Z,102701.34
2022-10-17T10:13:40.431Z,102697.19
2022-10-17T10:16:18.365Z,102699.34
2022-10-17T10:18:47.445Z,102692.75
2022-10-17T10:21:20.099Z,102688.59
2022-10-17T10:24:03.342Z,102694.47
2022-10-17T10:26:35.872Z,102692.28
2022-10-17T10:29:06.046Z,102683.72
2022-10-17T10:31:37.564Z,102693.34
2022-10-17T10:34:24.199Z,102694.22
2022-10-17T10:36:58.154Z,102686.44
2022-10-17T10:39:45.312Z,102693.91
2022-10-17T10:42:29.091Z,102698.91
2022-10-17T10:45:00.004Z,102691.44
2022-10-17T10:47:31.197Z,102684.13
2022-10-17T10:50:16.882Z,102692.16
2022-10-17T10:52:48.129Z,102691.25
2022-10-17T10:55:20.206Z,102695.41
2022-10-17T10:57:47.700Z,102688.84
2022-10-17T11:00:21.677Z,102689.94
2022-10-17T11:02:52.951Z,102696.50
2022-10-17T11:05:34.932Z,102700.38
2022-10-17T11:08:37.056Z,102701.50
2022-10-17T11:11:18.111Z,102702.06
2022-10-17T11:14:11.669Z,102699.91
2022-10-17T11:16:46.589Z,102704.09
2022-10-17T11:19:26.137Z,102702.91
2022-10-17T11:22:37.564Z,102698.56
2022-10-17T11:25:14.397Z,102698.13
2022-10-17T11:27:40.922Z,102697.97
2022-10-17T11:30:12.892Z,102703.28
2022-10-17T11:33:08.725Z,102699.53
2022-10-17T11:35:40.559Z,102698.38
2022-10-17T11:38:16.188Z,102695.47
2022-10-17T11:40:46.670Z,102695.47
2022-10-17T11:43:25.636Z,102691.44
2022-10-17T11:46:02.793Z,102693.03
2022-10-17T11:48:34.613Z,102699.03
2022-10-17T11:54:04.589Z,102691.00
2022-10-17T11:56:55.971Z,102684.97
2022-10-17T11:59:34.653Z,102683.84
2022-10-17T12:02:13.099Z,102685.19
2022-10-17T12:04:49.806Z,102686.50
2022-10-17T12:07:48.893Z,102681.94
2022-10-17T12:10:26.981Z,102678.22
2022-10-17T12:12:53.501Z,102677.13
2022-10-17T12:15:19.963Z,102675.84
2022-10-17T12:17:55.031Z,102676.13
2022-10-17T12:20:24.381Z,102675.97
2022-10-17T12:22:51.233Z,102675.53
2022-10-17T12:25:31.548Z,102681.53
2022-10-17T12:28:21.189Z,102688.28
2022-10-17T12:31:00.060Z,102671.34
2022-10-17T12:33:50.177Z,102677.19
2022-10-17T12:36:17.071Z,102677.75
2022-10-17T12:38:51.234Z,102676.44
2022-10-17T12:41:44.789Z,102673.56
2022-10-17T12:44:14.510Z,102671.56
2022-10-17T12:46:45.665Z,102667.78
2022-10-17T12:49:38.658Z,102666.63
2022-10-17T12:52:11.261Z,102663.44
2022-10-17T12:54:47.755Z,102652.09
2022-10-17T12:57:35.442Z,102655.34
2022-10-17T13:00:24.201Z,102643.28
2022-10-17T13:02:54.287Z,102655.56
2022-10-17T13:05:23.821Z,102649.69
2022-10-17T13:07:52.226Z,102654.13
2022-10-17T13:10:24.907Z,102656.13
2022-10-17T13:12:54.634Z,102648.78
2022-10-17T13:15:21.388Z,102647.25
2022-10-17T13:17:56.135Z,102649.59
2022-10-17T13:20:29.072Z,102656.38
2022-10-17T13:22:58.946Z,102648.19
2022-10-17T13:25:27.072Z,102643.56
2022-10-17T13:28:04.942Z,102643.41
2022-10-17T13:30:34.110Z,102645.81
2022-10-17T13:33:01.596Z,102647.56
2022-10-17T13:35:58.813Z,102641.25
2022-10-17T13:38:28.290Z,102650.75
2022-10-17T13:41:01.769Z,102652.78
2022-10-17T13:43:38.762Z,102645.03
2022-10-17T13:46:25.626Z,102645.34
2022-10-17T13:48:52.773Z,102639.31
2022-10-17T13:51:19.993Z,102640.66
2022-10-17T13:53:46.547Z,102639.09
2022-10-17T13:56:29.875Z,102633.63
2022-10-17T13:58:59.255Z,102634.09
2022-10-17T14:01:27.647Z,102627.22
2022-10-17T14:04:07.729Z,102624.63
2022-10-17T14:06:43.945Z,102627.50
2022-10-17T14:09:22.718Z,102625.94
2022-10-17T14:12:02.375Z,102626.94
2022-10-17T14:14:30.429Z,102628.09
2022-10-17T14:17:16.008Z,102622.81
2022-10-17T14:19:46.008Z,102626.84
2022-10-17T14:22:26.641Z,102618.78
2022-10-17T14:24:53.647Z,102634.47
2022-10-17T14:27:26.080Z,102624.84
2022-10-17T14:29:54.192Z,102625.31
2022-10-17T14:32:21.649Z,102622.88
2022-10-17T14:34:55.197Z,102628.50
2022-10-17T14:37:33.491Z,102620.06
2022-10-17T14:40:01.216Z,102631.25
2022-10-17T14:42:27.790Z,102625.09
2022-10-17T14:44:56.035Z,102622.69
2022-10-17T14:50:12.983Z,102618.97
2022-10-17T14:52:40.972Z,102613.81
2022-10-17T14:55:37.920Z,102617.00
2022-10-17T14:58:18.248Z,102615.56
2022-10-17T15:00:44.853Z,102624.19
2022-10-17T15:03:11.476Z,102613.72
2022-10-17T15:05:38.145Z,102608.00
2022-10-17T15:08:09.301Z,102608.72
2022-10-17T15:10:36.961Z,102609.28
2022-10-17T15:13:26.723Z,102611.44
2022-10-17T15:15:52.306Z,102609.44
2022-10-17T15:18:19.383Z,102616.19
2022-10-17T15:20:45.973Z,102614.75
2022-10-17T15:23:12.502Z,102614.91
2022-10-17T15:25:39.257Z,102615.75
2022-10-17T15:28:05.884Z,102618.34
2022-10-17T15:30:35.754Z,102615.63
2022-10-17T15:33:02.318Z,102614.19
2022-10-17T15:35:29.071Z,102609.31
2022-10-17T15:37:55.704Z,102614.19
2022-10-17T15:40:31.206Z,102618.91
2022-10-17T15:42:58.099Z,102619.50
2022-10-17T15:45:25.075Z,102618.06
2022-10-17T15:47:57.445Z,102620.22
2022-10-17T15:50:23.962Z,102625.09
2022-10-17T15:52:53.640Z,102624.50
2022-10-17T15:55:20.244Z,102625.66
2022-10-17T15:57:47.715Z,102628.38
2022-10-17T16:00:24.042Z,102625.91
2022-10-17T16:02:50.963Z,102627.06
2022-10-17T16:05:23.274Z,102628.09
2022-10-17T16:07:50.084Z,102629.91
2022-10-17T16:10:17.348Z,102629.91
2022-10-17T16:12:44.597Z,102630.09
2022-10-17T16:15:17.130Z,102637.41
2022-10-17T16:17:43.958Z,102631.22
2022-10-17T16:20:12.001Z,102632.50
2022-10-17T16:22:40.636Z,102629.91
2022-10-17T16:25:19.393Z,102634.63
2022-10-17T16:27:50.109Z,102635.78
2022-10-17T16:30:16.892Z,102634.16
2022-10-17T16:32:43.851Z,102642.50
2022-10-17T16:35:16.943Z,102649.75
2022-10-17T16:37:43.612Z,102641.03
2022-10-17T16:40:10.976Z,102638.59
2022-10-17T16:42:37.575Z,102639.59
2022-10-17T16:45:04.591Z,102638.75
2022-10-17T16:47:31.151Z,102642.44
2022-10-17T16:49:57.761Z,102641.59
2022-10-17T16:52:24.459Z,102646.19
2022-10-17T16:54:51.095Z,102657.06
2022-10-17T16:57:17.589Z,102650.75
2022-10-17T16:59:44.099Z,102653.47
2022-10-17T17:02:12.009Z,102667.06
2022-10-17T17:04:38.710Z,102659.91
2022-10-17T17:07:05.342Z,102669.06
2022-10-17T17:09:31.932Z,102674.50
2022-10-17T17:11:58.449Z,102674.78
2022-10-17T17:14:25.017Z,102684.81
2022-10-17T17:16:51.560Z,102693.13
2022-10-17T17:19:18.292Z,102692.53
2022-10-17T17:21:50.086Z,102692.81
2022-10-17T17:24:17.956Z,102691.22
2022-10-17T17:26:44.653Z,102686.91
2022-10-17T17:29:12.273Z,102689.91
2022-10-17T17:31:42.018Z,102694.75
2022-10-17T17:34:09.140Z,102695.03
2022-10-17T17:36:37.875Z,102695.28
2022-10-17T17:39:06.931Z,102697.41
2022-10-17T17:41:33.690Z,102695.09
2022-10-17T17:44:01.039Z,102701.69
2022-10-17T17:46:27.766Z,102699.25
2022-10-17T17:48:55.367Z,102701.22
2022-10-17T17:51:28.344Z,102704.09
2022-10-17T17:53:56.298Z,102704.34
2022-10-17T17:56:25.575Z,102705.34
2022-10-17T17:58:57.632Z,102702.88
2022-10-17T18:01:25.962Z,102708.44
2022-10-17T18:03:53.836Z,102708.84
2022-10-17T18:06:21.208Z,102709.09
2022-10-17T18:08:50.278Z,102714.06
2022-10-17T18:11:19.639Z,102713.59
2022-10-17T18:13:48.434Z,102718.81
2022-10-17T18:16:16.810Z,102716.63
2022-10-17T18:18:44.980Z,102711.59
2022-10-17T18:21:12.916Z,102706.56
2022-10-17T18:23:40.817Z,102705.94
2022-10-17T18:26:07.576Z,102710.06
2022-10-17T18:28:35.997Z,102703.03
2022-10-17T18:31:24.226Z,102711.44
2022-10-17T18:33:55.270Z,102715.28
2022-10-17T18:36:22.249Z,102714.66
2022-10-17T18:38:49.254Z,102709.38
2022-10-17T18:41:18.838Z,102706.06
2022-10-17T18:43:46.997Z,102709.03
2022-10-17T18:46:21.599Z,102709.13
2022-10-17T18:48:49.247Z,102709.41
2022-10-17T18:51:19.830Z,102702.25
2022-10-17T18:53:49.126Z,102697.94
2022-10-17T18:56:15.864Z,102700.94
2022-10-17T18:58:42.624Z,102692.16
2022-10-17T19:01:12.019Z,102696.94
2022-10-17T19:03:38.596Z,102690.03
2022-10-17T19:06:09.704Z,102695.63
2022-10-17T19:08:37.024Z,102699.59
2022-10-17T19:11:33.478Z,102697.97
2022-10-17T19:14:14.133Z,102697.38
2022-10-17T19:16:46.139Z,102694.91
2022-10-17T19:19:24.563Z,102687.03
2022-10-17T19:21:51.808Z,102703.53
2022-10-17T19:24:21.834Z,102696.41
2022-10-17T19:26:55.942Z,102697.53
2022-10-17T19:29:24.794Z,102702.22
2022-10-17T19:31:52.028Z,102696.91
2022-10-17T19:34:19.078Z,102701.31
2022-10-17T19:36:46.175Z,102699.63
2022-10-17T19:39:16.092Z,102702.34
2022-10-17T19:41:44.176Z,102705.16
2022-10-17T19:44:11.163Z,102706.28
2022-10-17T19:46:37.979Z,102705.44
2022-10-17T19:49:05.231Z,102709.13
2022-10-17T19:51:32.367Z,102702.84
2022-10-17T19:54:00.580Z,102700.84
2022-10-17T19:56:30.134Z,102698.88
2022-10-17T19:58:57.248Z,102705.16
2022-10-17T20:01:25.946Z,102704.31
2022-10-17T20:03:53.166Z,102701.59
2022-10-17T20:06:20.702Z,102705.28
2022-10-17T20:08:47.271Z,102713.31
2022-10-17T20:11:16.155Z,102705.16
2022-10-17T20:13:42.762Z,102708.00
2022-10-17T20:16:12.279Z,102709.13
2022-10-17T20:18:40.841Z,102703.06
2022-10-17T20:21:10.914Z,102721.19
2022-10-17T20:23:37.781Z,102707.03
2022-10-17T20:26:25.479Z,102718.13
2022-10-17T20:28:53.534Z,102710.59
2022-10-17T20:31:20.756Z,102707.28
2022-10-17T20:33:47.358Z,102708.53
2022-10-17T20:36:16.562Z,102715.06
2022-10-17T20:38:43.097Z,102705.31
2022-10-17T20:41:10.533Z,102707.28
2022-10-17T20:43:38.432Z,102710.13
2022-10-17T20:46:22.796Z,102712.84
2022-10-17T20:48:53.784Z,102722.06
2022-10-17T20:51:21.024Z,102718.59
2022-10-17T20:53:48.244Z,102721.47
2022-10-17T20:56:20.921Z,102717.13
2022-10-17T20:58:52.171Z,102715.28
2022-10-17T21:01:18.862Z,102719.09
2022-10-17T21:03:46.676Z,102719.09
2022-10-17T21:06:16.386Z,102722.81
2022-10-17T21:08:43.224Z,102724.88
2022-10-17T21:11:13.340Z,102722.41
2022-10-17T21:13:40.493Z,102723.50
2022-10-17T21:16:09.277Z,102728.94
2022-10-17T21:18:37.382Z,102727.19
2022-10-17T21:21:26.730Z,102727.19
2022-10-17T21:23:58.548Z,102726.34
2022-10-17T21:26:25.143Z,102718.41
2022-10-17T21:28:51.763Z,102714.84
2022-10-17T21:31:25.787Z,102718.56
2022-10-17T21:33:55.712Z,102714.84
2022-10-17T21:36:23.505Z,102715.97
2022-10-17T21:38:52.167Z,102719.66
2022-10-17T21:41:27.572Z,102711.78
2022-10-17T21:43:56.144Z,102729.13
2022-10-17T21:46:23.085Z,102722.22
2022-10-17T21:48:51.757Z,102723.44
2022-10-17T21:51:21.311Z,102727.28
2022-10-17T21:53:48.551Z,102723.81
2022-10-17T21:56:16.994Z,102719.38
2022-10-17T21:58:44.107Z,102725.78
2022-10-17T22:01:22.399Z,102725.91
2022-10-17T22:03:51.796Z,102724.16
2022-10-17T22:09:13.727Z,102722.44
2022-10-17T22:11:40.843Z,102720.59
2022-10-17T22:14:11.273Z,102720.69
2022-10-17T22:16:38.448Z,102714.56
2022-10-17T22:19:06.842Z,102720.19
2022-10-17T22:21:35.386Z,102719.25
2022-10-17T22:24:04.505Z,102718.34
2022-10-17T22:26:32.389Z,102720.19
2022-10-17T22:28:59.014Z,102724.03
2022-10-17T22:31:25.984Z,102715.25
2022-10-17T22:33:52.545Z,102712.53
2022-10-17T22:36:19.506Z,102714.50
2022-10-17T22:38:46.088Z,102709.34
2022-10-17T22:41:12.638Z,102710.31
2022-10-17T22:43:39.140Z,102714.97
2022-10-17T22:46:06.699Z,102710.56
2022-10-17T22:48:33.884Z,102711.53
2022-10-17T22:51:00.619Z,102708.91
2022-10-17T22:53:27.432Z,102712.63
2022-10-17T22:55:58.700Z,102710.78
2022-10-17T22:58:25.870Z,102711.03
2022-10-17T23:00:53.393Z,102705.59
2022-10-17T23:03:21.119Z,102707.47
2022-10-17T23:05:47.919Z,102708.22
2022-10-17T23:08:15.190Z,102707.22
2022-10-17T23:10:42.005Z,102703.50
2022-10-17T23:13:08.505Z,102698.97
2022-10-17T23:15:35.135Z,102694.53
2022-10-17T23:18:02.389Z,102698.09
2022-10-17T23:20:29.886Z,102704.50
2022-10-17T23:22:56.901Z,102692.81
2022-10-17T23:25:23.606Z,102692.91
2022-10-17T23:27:50.228Z,102688.50
2022-10-17T23:30:17.079Z,102681.13
2022-10-17T23:32:43.765Z,102681.72
2022-10-17T23:35:10.827Z,102681.50
2022-10-17T23:37:37.367Z,102689.75
2022-10-17T23:40:05.471Z,102681.72
2022-10-17T23:42:32.138Z,102680.88
2022-10-17T23:44:58.655Z,102680.03
2022-10-17T23:47:25.206Z,102675.72
2022-10-17T23:49:51.733Z,102679.50
2022-10-17T23:52:18.247Z,102683.19
2022-10-17T23:54:44.835Z,102687.13
2022-10-17T23:57:11.382Z,102683.66
2022-10-17T23:59:37.871Z,102690.03
